Kensington, Canada
Current Conditions -  °F | °C
As of 6:36 PM on Thursday 23 Oct 2014 (Local Time) from CYYG Reporting Station
Rain Showers Rain Showers  
Wind Chill: 52°   Ceiling: 5000
Heat Index: 52°   Visibility: 15mi
Dew Point: 48°   Wind: 13mph
Humidity: 88%   Direction: 50°NE
Pressure: 30"   Gusts: NA
Location:  46.43°N, 63.65°W
Report Text: CYYG 232136Z 05011KT 15SM -SHRA OVC050 11/09 A3000 RMK SC8 SLP161
Loading
Personal Weather Stations






























Interactive Weather Map New forecast layout! Learn more

10-Day Weather Forecast

Advertisements
Track Severe Weather on mobile